sensor_id;sensor_type;location;lat;lon;timestamp;P1;durP1;ratioP1;P2;durP2;ratioP2
19127;SDS011;9696;53.686;10.094;2023-05-23T00:00:12;10.90;;;8.43;;
19127;SDS011;9696;53.686;10.094;2023-05-23T00:02:42;17.27;;;9.00;;
19127;SDS011;9696;53.686;10.094;2023-05-23T00:05:13;13.03;;;8.70;;
19127;SDS011;9696;53.686;10.094;2023-05-23T00:07:45;13.03;;;8.27;;
19127;SDS011;9696;53.686;10.094;2023-05-23T00:10:14;13.90;;;8.90;;
19127;SDS011;9696;53.686;10.094;2023-05-23T00:12:43;11.67;;;8.93;;
19127;SDS011;9696;53.686;10.094;2023-05-23T00:15:13;13.97;;;10.23;;
19127;SDS011;9696;53.686;10.094;2023-05-23T00:17:43;14.97;;;8.87;;
19127;SDS011;9696;53.686;10.094;2023-05-23T00:20:12;13.87;;;9.07;;
19127;SDS011;9696;53.686;10.094;2023-05-23T00:22:42;13.80;;;9.50;;
19127;SDS011;9696;53.686;10.094;2023-05-23T00:25:14;13.27;;;10.13;;
19127;SDS011;9696;53.686;10.094;2023-05-23T00:27:43;12.97;;;10.00;;
19127;SDS011;9696;53.686;10.094;2023-05-23T00:30:12;13.00;;;10.20;;
19127;SDS011;9696;53.686;10.094;2023-05-23T00:32:42;17.13;;;11.07;;
19127;SDS011;9696;53.686;10.094;2023-05-23T00:35:11;13.70;;;10.10;;
19127;SDS011;9696;53.686;10.094;2023-05-23T00:37:40;17.23;;;10.43;;
19127;SDS011;9696;53.686;10.094;2023-05-23T00:40:11;13.87;;;10.40;;
19127;SDS011;9696;53.686;10.094;2023-05-23T00:42:40;12.97;;;9.90;;
19127;SDS011;9696;53.686;10.094;2023-05-23T00:45:10;11.67;;;9.00;;
19127;SDS011;9696;53.686;10.094;2023-05-23T00:47:39;11.93;;;8.80;;
19127;SDS011;9696;53.686;10.094;2023-05-23T00:50:10;12.33;;;8.90;;
19127;SDS011;9696;53.686;10.094;2023-05-23T00:52:41;16.20;;;9.83;;
19127;SDS011;9696;53.686;10.094;2023-05-23T00:55:13;17.07;;;10.00;;
19127;SDS011;9696;53.686;10.094;2023-05-23T00:57:42;11.97;;;9.77;;
19127;SDS011;9696;53.686;10.094;2023-05-23T01:00:12;15.93;;;12.17;;
19127;SDS011;9696;53.686;10.094;2023-05-23T01:02:44;16.83;;;9.27;;
19127;SDS011;9696;53.686;10.094;2023-05-23T01:05:17;12.70;;;9.00;;
19127;SDS011;9696;53.686;10.094;2023-05-23T01:07:48;14.40;;;8.60;;
19127;SDS011;9696;53.686;10.094;2023-05-23T01:10:20;11.53;;;8.43;;
19127;SDS011;9696;53.686;10.094;2023-05-23T01:12:55;15.93;;;9.60;;
19127;SDS011;9696;53.686;10.094;2023-05-23T01:15:35;11.67;;;8.70;;
19127;SDS011;9696;53.686;10.094;2023-05-23T01:18:10;13.83;;;8.13;;
19127;SDS011;9696;53.686;10.094;2023-05-23T01:20:48;21.73;;;8.80;;
19127;SDS011;9696;53.686;10.094;2023-05-23T01:23:36;9.50;;;7.50;;
19127;SDS011;9696;53.686;10.094;2023-05-23T01:26:36;10.47;;;7.73;;
19127;SDS011;9696;53.686;10.094;2023-05-23T01:29:21;9.60;;;7.90;;
19127;SDS011;9696;53.686;10.094;2023-05-23T01:31:53;12.33;;;8.40;;
19127;SDS011;9696;53.686;10.094;2023-05-23T01:34:25;13.97;;;9.77;;
19127;SDS011;9696;53.686;10.094;2023-05-23T01:36:57;14.90;;;9.13;;
19127;SDS011;9696;53.686;10.094;2023-05-23T01:39:26;14.43;;;9.03;;
19127;SDS011;9696;53.686;10.094;2023-05-23T01:41:55;15.70;;;8.23;;
19127;SDS011;9696;53.686;10.094;2023-05-23T01:44:26;13.37;;;8.37;;
19127;SDS011;9696;53.686;10.094;2023-05-23T01:46:55;12.57;;;9.40;;
19127;SDS011;9696;53.686;10.094;2023-05-23T01:49:25;10.73;;;9.07;;
19127;SDS011;9696;53.686;10.094;2023-05-23T01:51:56;15.67;;;8.53;;
19127;SDS011;9696;53.686;10.094;2023-05-23T01:54:26;12.00;;;9.23;;
19127;SDS011;9696;53.686;10.094;2023-05-23T01:56:56;13.00;;;8.97;;
19127;SDS011;9696;53.686;10.094;2023-05-23T01:59:27;12.37;;;9.50;;
19127;SDS011;9696;53.686;10.094;2023-05-23T02:01:57;11.87;;;8.57;;
19127;SDS011;9696;53.686;10.094;2023-05-23T02:04:26;11.17;;;9.17;;
19127;SDS011;9696;53.686;10.094;2023-05-23T02:06:57;15.77;;;9.03;;
19127;SDS011;9696;53.686;10.094;2023-05-23T02:09:26;12.43;;;9.73;;
19127;SDS011;9696;53.686;10.094;2023-05-23T02:11:55;12.43;;;9.57;;
19127;SDS011;9696;53.686;10.094;2023-05-23T02:14:26;13.00;;;9.27;;
19127;SDS011;9696;53.686;10.094;2023-05-23T02:16:55;14.70;;;10.30;;
19127;SDS011;9696;53.686;10.094;2023-05-23T02:19:26;14.33;;;10.57;;
19127;SDS011;9696;53.686;10.094;2023-05-23T02:21:55;16.17;;;12.07;;
19127;SDS011;9696;53.686;10.094;2023-05-23T02:24:24;16.95;;;10.55;;
19127;SDS011;9696;53.686;10.094;2023-05-23T02:26:54;13.37;;;9.83;;
19127;SDS011;9696;53.686;10.094;2023-05-23T02:29:23;12.23;;;10.30;;
19127;SDS011;9696;53.686;10.094;2023-05-23T02:31:54;16.33;;;10.43;;
19127;SDS011;9696;53.686;10.094;2023-05-23T02:34:23;13.17;;;10.33;;
19127;SDS011;9696;53.686;10.094;2023-05-23T02:36:53;17.00;;;11.63;;
19127;SDS011;9696;53.686;10.094;2023-05-23T02:39:22;19.53;;;14.33;;
19127;SDS011;9696;53.686;10.094;2023-05-23T02:41:52;22.52;;;16.50;;
19127;SDS011;9696;53.686;10.094;2023-05-23T02:44:21;25.50;;;17.90;;
19127;SDS011;9696;53.686;10.094;2023-05-23T02:46:50;28.42;;;20.27;;
19127;SDS011;9696;53.686;10.094;2023-05-23T02:49:21;27.85;;;19.88;;
19127;SDS011;9696;53.686;10.094;2023-05-23T02:51:50;39.00;;;25.87;;
19127;SDS011;9696;53.686;10.094;2023-05-23T02:54:19;36.43;;;25.27;;
19127;SDS011;9696;53.686;10.094;2023-05-23T02:56:49;37.50;;;26.63;;
19127;SDS011;9696;53.686;10.094;2023-05-23T02:59:21;41.20;;;28.87;;
19127;SDS011;9696;53.686;10.094;2023-05-23T03:01:50;41.10;;;27.87;;
19127;SDS011;9696;53.686;10.094;2023-05-23T03:04:21;43.03;;;29.37;;
19127;SDS011;9696;53.686;10.094;2023-05-23T03:06:50;44.60;;;28.93;;
19127;SDS011;9696;53.686;10.094;2023-05-23T03:09:20;42.93;;;29.53;;
19127;SDS011;9696;53.686;10.094;2023-05-23T03:11:49;45.47;;;29.53;;
19127;SDS011;9696;53.686;10.094;2023-05-23T03:14:18;54.97;;;30.70;;
19127;SDS011;9696;53.686;10.094;2023-05-23T03:16:48;51.75;;;30.30;;
19127;SDS011;9696;53.686;10.094;2023-05-23T03:19:17;53.93;;;31.07;;
19127;SDS011;9696;53.686;10.094;2023-05-23T03:21:48;53.93;;;30.53;;
19127;SDS011;9696;53.686;10.094;2023-05-23T03:24:18;50.03;;;30.57;;
19127;SDS011;9696;53.686;10.094;2023-05-23T03:26:48;60.63;;;31.57;;
19127;SDS011;9696;53.686;10.094;2023-05-23T03:29:17;57.27;;;31.63;;
19127;SDS011;9696;53.686;10.094;2023-05-23T03:31:47;53.03;;;31.07;;
19127;SDS011;9696;53.686;10.094;2023-05-23T03:34:16;59.17;;;30.67;;
19127;SDS011;9696;53.686;10.094;2023-05-23T03:36:45;54.00;;;31.43;;
19127;SDS011;9696;53.686;10.094;2023-05-23T03:39:16;55.10;;;30.10;;
19127;SDS011;9696;53.686;10.094;2023-05-23T03:41:46;69.07;;;30.80;;
19127;SDS011;9696;53.686;10.094;2023-05-23T03:44:15;54.33;;;28.70;;
19127;SDS011;9696;53.686;10.094;2023-05-23T03:46:44;62.23;;;30.27;;
19127;SDS011;9696;53.686;10.094;2023-05-23T03:49:15;61.50;;;30.53;;
19127;SDS011;9696;53.686;10.094;2023-05-23T03:51:44;61.87;;;31.00;;
19127;SDS011;9696;53.686;10.094;2023-05-23T03:54:16;63.40;;;31.97;;
19127;SDS011;9696;53.686;10.094;2023-05-23T03:56:45;57.83;;;30.87;;
19127;SDS011;9696;53.686;10.094;2023-05-23T03:59:15;53.90;;;27.60;;
19127;SDS011;9696;53.686;10.094;2023-05-23T04:01:45;58.87;;;27.77;;
19127;SDS011;9696;53.686;10.094;2023-05-23T04:04:15;63.03;;;29.57;;
19127;SDS011;9696;53.686;10.094;2023-05-23T04:06:44;56.47;;;28.10;;
19127;SDS011;9696;53.686;10.094;2023-05-23T04:09:13;49.83;;;26.93;;
19127;SDS011;9696;53.686;10.094;2023-05-23T04:11:46;60.70;;;29.33;;
19127;SDS011;9696;53.686;10.094;2023-05-23T04:14:17;58.77;;;27.30;;
19127;SDS011;9696;53.686;10.094;2023-05-23T04:16:48;52.23;;;26.77;;
19127;SDS011;9696;53.686;10.094;2023-05-23T04:19:18;47.50;;;25.43;;
19127;SDS011;9696;53.686;10.094;2023-05-23T04:21:47;64.60;;;25.53;;
19127;SDS011;9696;53.686;10.094;2023-05-23T04:24:17;41.77;;;22.90;;
19127;SDS011;9696;53.686;10.094;2023-05-23T04:26:48;51.83;;;24.13;;
19127;SDS011;9696;53.686;10.094;2023-05-23T04:29:17;47.90;;;23.27;;
19127;SDS011;9696;53.686;10.094;2023-05-23T04:31:47;51.57;;;24.33;;
19127;SDS011;9696;53.686;10.094;2023-05-23T04:34:17;53.53;;;24.37;;
19127;SDS011;9696;53.686;10.094;2023-05-23T04:36:48;46.97;;;23.23;;
19127;SDS011;9696;53.686;10.094;2023-05-23T04:39:19;46.80;;;23.07;;
19127;SDS011;9696;53.686;10.094;2023-05-23T04:42:12;55.97;;;24.03;;
19127;SDS011;9696;53.686;10.094;2023-05-23T04:45:04;53.03;;;24.37;;
19127;SDS011;9696;53.686;10.094;2023-05-23T04:47:49;52.03;;;23.37;;
19127;SDS011;9696;53.686;10.094;2023-05-23T04:50:32;45.67;;;24.47;;
19127;SDS011;9696;53.686;10.094;2023-05-23T04:53:03;44.80;;;23.50;;
19127;SDS011;9696;53.686;10.094;2023-05-23T04:55:33;43.27;;;21.93;;
19127;SDS011;9696;53.686;10.094;2023-05-23T04:58:05;48.13;;;22.93;;
19127;SDS011;9696;53.686;10.094;2023-05-23T05:00:35;45.60;;;24.50;;
19127;SDS011;9696;53.686;10.094;2023-05-23T05:03:05;49.20;;;22.47;;
19127;SDS011;9696;53.686;10.094;2023-05-23T05:05:40;48.60;;;22.27;;
19127;SDS011;9696;53.686;10.094;2023-05-23T05:08:10;46.47;;;22.80;;
19127;SDS011;9696;53.686;10.094;2023-05-23T05:10:40;47.80;;;23.73;;
19127;SDS011;9696;53.686;10.094;2023-05-23T05:13:11;46.03;;;23.10;;
19127;SDS011;9696;53.686;10.094;2023-05-23T05:15:47;50.13;;;24.17;;
19127;SDS011;9696;53.686;10.094;2023-05-23T05:18:18;57.93;;;24.23;;
19127;SDS011;9696;53.686;10.094;2023-05-23T05:20:47;54.17;;;24.30;;
19127;SDS011;9696;53.686;10.094;2023-05-23T05:23:17;56.63;;;25.43;;
19127;SDS011;9696;53.686;10.094;2023-05-23T05:25:46;59.93;;;26.07;;
19127;SDS011;9696;53.686;10.094;2023-05-23T05:28:17;46.73;;;24.57;;
19127;SDS011;9696;53.686;10.094;2023-05-23T05:30:50;58.07;;;24.20;;
19127;SDS011;9696;53.686;10.094;2023-05-23T05:33:21;55.00;;;24.57;;
19127;SDS011;9696;53.686;10.094;2023-05-23T05:36:07;65.67;;;26.03;;
19127;SDS011;9696;53.686;10.094;2023-05-23T05:38:36;52.53;;;24.10;;
19127;SDS011;9696;53.686;10.094;2023-05-23T05:41:05;50.97;;;24.57;;
19127;SDS011;9696;53.686;10.094;2023-05-23T05:43:40;63.37;;;26.03;;
19127;SDS011;9696;53.686;10.094;2023-05-23T05:46:09;54.87;;;25.10;;
19127;SDS011;9696;53.686;10.094;2023-05-23T05:48:39;57.20;;;24.03;;
19127;SDS011;9696;53.686;10.094;2023-05-23T05:51:11;50.33;;;24.60;;
19127;SDS011;9696;53.686;10.094;2023-05-23T05:53:41;53.37;;;24.10;;
19127;SDS011;9696;53.686;10.094;2023-05-23T05:56:10;50.63;;;24.57;;
19127;SDS011;9696;53.686;10.094;2023-05-23T05:58:41;51.93;;;26.17;;
19127;SDS011;9696;53.686;10.094;2023-05-23T06:01:12;57.47;;;25.63;;
19127;SDS011;9696;53.686;10.094;2023-05-23T06:03:42;44.90;;;23.77;;
19127;SDS011;9696;53.686;10.094;2023-05-23T06:06:11;61.80;;;26.33;;
19127;SDS011;9696;53.686;10.094;2023-05-23T06:08:41;49.40;;;24.80;;
19127;SDS011;9696;53.686;10.094;2023-05-23T06:11:14;70.30;;;27.03;;
19127;SDS011;9696;53.686;10.094;2023-05-23T06:13:45;61.70;;;25.80;;
19127;SDS011;9696;53.686;10.094;2023-05-23T06:16:14;53.63;;;25.03;;
19127;SDS011;9696;53.686;10.094;2023-05-23T06:18:44;55.27;;;26.20;;
19127;SDS011;9696;53.686;10.094;2023-05-23T06:21:14;60.07;;;26.27;;
19127;SDS011;9696;53.686;10.094;2023-05-23T06:23:47;51.83;;;24.23;;
19127;SDS011;9696;53.686;10.094;2023-05-23T06:26:18;46.17;;;24.57;;
19127;SDS011;9696;53.686;10.094;2023-05-23T06:28:48;56.17;;;24.90;;
19127;SDS011;9696;53.686;10.094;2023-05-23T06:31:17;53.73;;;25.70;;
19127;SDS011;9696;53.686;10.094;2023-05-23T06:33:46;68.17;;;26.80;;
19127;SDS011;9696;53.686;10.094;2023-05-23T06:36:16;56.13;;;27.13;;
19127;SDS011;9696;53.686;10.094;2023-05-23T06:38:47;56.03;;;25.97;;
19127;SDS011;9696;53.686;10.094;2023-05-23T06:41:16;58.53;;;27.80;;
19127;SDS011;9696;53.686;10.094;2023-05-23T06:43:46;53.90;;;26.13;;
19127;SDS011;9696;53.686;10.094;2023-05-23T06:46:24;57.28;;;26.15;;
19127;SDS011;9696;53.686;10.094;2023-05-23T06:48:53;57.13;;;27.30;;
19127;SDS011;9696;53.686;10.094;2023-05-23T06:51:40;54.47;;;25.50;;
19127;SDS011;9696;53.686;10.094;2023-05-23T06:54:10;52.57;;;26.27;;
19127;SDS011;9696;53.686;10.094;2023-05-23T06:56:39;46.67;;;24.60;;
19127;SDS011;9696;53.686;10.094;2023-05-23T06:59:10;49.03;;;24.10;;
19127;SDS011;9696;53.686;10.094;2023-05-23T07:01:39;42.17;;;19.67;;
19127;SDS011;9696;53.686;10.094;2023-05-23T07:04:09;27.97;;;16.13;;
19127;SDS011;9696;53.686;10.094;2023-05-23T07:06:39;23.43;;;14.43;;
19127;SDS011;9696;53.686;10.094;2023-05-23T07:09:08;23.90;;;14.63;;
19127;SDS011;9696;53.686;10.094;2023-05-23T07:11:40;15.97;;;11.67;;
19127;SDS011;9696;53.686;10.094;2023-05-23T07:14:11;18.13;;;11.70;;
19127;SDS011;9696;53.686;10.094;2023-05-23T07:16:43;17.43;;;12.10;;
19127;SDS011;9696;53.686;10.094;2023-05-23T07:19:12;17.70;;;11.90;;
19127;SDS011;9696;53.686;10.094;2023-05-23T07:21:46;18.17;;;10.57;;
19127;SDS011;9696;53.686;10.094;2023-05-23T07:24:17;16.77;;;10.17;;
19127;SDS011;9696;53.686;10.094;2023-05-23T07:26:46;16.07;;;10.17;;
19127;SDS011;9696;53.686;10.094;2023-05-23T07:29:17;15.10;;;9.57;;
19127;SDS011;9696;53.686;10.094;2023-05-23T07:31:48;16.80;;;10.27;;
19127;SDS011;9696;53.686;10.094;2023-05-23T07:34:19;13.23;;;9.50;;
19127;SDS011;9696;53.686;10.094;2023-05-23T07:36:53;16.97;;;9.30;;
19127;SDS011;9696;53.686;10.094;2023-05-23T07:39:24;17.80;;;8.60;;
19127;SDS011;9696;53.686;10.094;2023-05-23T07:41:56;12.90;;;7.87;;
19127;SDS011;9696;53.686;10.094;2023-05-23T07:44:27;10.43;;;7.07;;
19127;SDS011;9696;53.686;10.094;2023-05-23T07:46:56;13.10;;;7.33;;
19127;SDS011;9696;53.686;10.094;2023-05-23T07:49:25;10.03;;;7.67;;
19127;SDS011;9696;53.686;10.094;2023-05-23T07:51:55;11.33;;;6.83;;
19127;SDS011;9696;53.686;10.094;2023-05-23T07:54:25;9.67;;;6.97;;
19127;SDS011;9696;53.686;10.094;2023-05-23T07:56:58;12.77;;;6.30;;
19127;SDS011;9696;53.686;10.094;2023-05-23T07:59:29;8.33;;;5.70;;
19127;SDS011;9696;53.686;10.094;2023-05-23T08:01:58;10.90;;;5.93;;
19127;SDS011;9696;53.686;10.094;2023-05-23T08:04:28;9.23;;;5.72;;
19127;SDS011;9696;53.686;10.094;2023-05-23T08:06:58;7.80;;;5.47;;
19127;SDS011;9696;53.686;10.094;2023-05-23T08:09:58;9.23;;;5.13;;
19127;SDS011;9696;53.686;10.094;2023-05-23T08:12:27;9.87;;;5.73;;
19127;SDS011;9696;53.686;10.094;2023-05-23T08:15:08;9.67;;;5.57;;
19127;SDS011;9696;53.686;10.094;2023-05-23T08:17:46;6.72;;;5.22;;
19127;SDS011;9696;53.686;10.094;2023-05-23T08:20:16;12.25;;;5.85;;
19127;SDS011;9696;53.686;10.094;2023-05-23T08:22:45;8.27;;;5.57;;
19127;SDS011;9696;53.686;10.094;2023-05-23T08:25:14;14.50;;;5.77;;
19127;SDS011;9696;53.686;10.094;2023-05-23T08:27:43;7.05;;;4.97;;
19127;SDS011;9696;53.686;10.094;2023-05-23T08:30:37;8.30;;;4.53;;
19127;SDS011;9696;53.686;10.094;2023-05-23T08:33:07;11.55;;;4.78;;
19127;SDS011;9696;53.686;10.094;2023-05-23T08:35:38;7.05;;;3.92;;
19127;SDS011;9696;53.686;10.094;2023-05-23T08:38:09;6.53;;;4.57;;
19127;SDS011;9696;53.686;10.094;2023-05-23T08:40:49;5.30;;;4.15;;
19127;SDS011;9696;53.686;10.094;2023-05-23T08:43:20;8.85;;;4.03;;
19127;SDS011;9696;53.686;10.094;2023-05-23T08:45:51;8.13;;;3.70;;
19127;SDS011;9696;53.686;10.094;2023-05-23T08:48:21;7.97;;;3.20;;
19127;SDS011;9696;53.686;10.094;2023-05-23T08:50:54;6.45;;;2.80;;
19127;SDS011;9696;53.686;10.094;2023-05-23T08:53:25;4.82;;;3.03;;
19127;SDS011;9696;53.686;10.094;2023-05-23T08:56:04;5.18;;;3.03;;
19127;SDS011;9696;53.686;10.094;2023-05-23T08:58:41;3.47;;;2.65;;
19127;SDS011;9696;53.686;10.094;2023-05-23T09:01:18;3.92;;;2.72;;
19127;SDS011;9696;53.686;10.094;2023-05-23T09:03:52;5.05;;;3.03;;
19127;SDS011;9696;53.686;10.094;2023-05-23T09:06:27;6.90;;;3.13;;
19127;SDS011;9696;53.686;10.094;2023-05-23T09:08:58;7.70;;;3.60;;
19127;SDS011;9696;53.686;10.094;2023-05-23T09:11:28;5.80;;;3.35;;
19127;SDS011;9696;53.686;10.094;2023-05-23T09:14:04;4.83;;;3.40;;
19127;SDS011;9696;53.686;10.094;2023-05-23T09:16:36;4.77;;;3.27;;
19127;SDS011;9696;53.686;10.094;2023-05-23T09:19:11;5.07;;;3.13;;
19127;SDS011;9696;53.686;10.094;2023-05-23T09:21:48;5.50;;;3.50;;
19127;SDS011;9696;53.686;10.094;2023-05-23T09:24:32;7.13;;;3.60;;
19127;SDS011;9696;53.686;10.094;2023-05-23T09:27:05;6.47;;;4.63;;
19127;SDS011;9696;53.686;10.094;2023-05-23T09:29:35;11.47;;;5.47;;
19127;SDS011;9696;53.686;10.094;2023-05-23T09:32:11;9.43;;;5.27;;
19127;SDS011;9696;53.686;10.094;2023-05-23T09:34:40;11.50;;;5.20;;
19127;SDS011;9696;53.686;10.094;2023-05-23T09:37:10;9.63;;;4.53;;
19127;SDS011;9696;53.686;10.094;2023-05-23T09:39:45;12.60;;;5.17;;
19127;SDS011;9696;53.686;10.094;2023-05-23T09:42:19;8.47;;;4.77;;
19127;SDS011;9696;53.686;10.094;2023-05-23T09:44:49;9.57;;;4.57;;
19127;SDS011;9696;53.686;10.094;2023-05-23T09:47:20;8.87;;;4.17;;
19127;SDS011;9696;53.686;10.094;2023-05-23T09:49:49;6.37;;;3.83;;
19127;SDS011;9696;53.686;10.094;2023-05-23T09:52:20;9.40;;;3.03;;
19127;SDS011;9696;53.686;10.094;2023-05-23T09:54:49;5.60;;;3.13;;
19127;SDS011;9696;53.686;10.094;2023-05-23T09:57:18;6.60;;;2.60;;
19127;SDS011;9696;53.686;10.094;2023-05-23T09:59:51;5.37;;;2.63;;
19127;SDS011;9696;53.686;10.094;2023-05-23T10:02:35;3.13;;;2.23;;
19127;SDS011;9696;53.686;10.094;2023-05-23T10:05:26;2.37;;;1.27;;
19127;SDS011;9696;53.686;10.094;2023-05-23T10:08:01;4.17;;;2.10;;
19127;SDS011;9696;53.686;10.094;2023-05-23T10:10:49;5.23;;;2.50;;
19127;SDS011;9696;53.686;10.094;2023-05-23T10:14:01;5.03;;;2.57;;
19127;SDS011;9696;53.686;10.094;2023-05-23T10:16:36;4.93;;;2.33;;
19127;SDS011;9696;53.686;10.094;2023-05-23T10:19:16;3.70;;;2.07;;
19127;SDS011;9696;53.686;10.094;2023-05-23T10:21:54;7.53;;;3.00;;
19127;SDS011;9696;53.686;10.094;2023-05-23T10:24:26;6.73;;;2.73;;
19127;SDS011;9696;53.686;10.094;2023-05-23T10:26:56;6.77;;;2.60;;
19127;SDS011;9696;53.686;10.094;2023-05-23T10:29:26;6.73;;;2.67;;
19127;SDS011;9696;53.686;10.094;2023-05-23T10:31:56;6.40;;;2.57;;
19127;SDS011;9696;53.686;10.094;2023-05-23T10:34:31;7.70;;;2.90;;
19127;SDS011;9696;53.686;10.094;2023-05-23T10:37:06;4.70;;;2.27;;
19127;SDS011;9696;53.686;10.094;2023-05-23T10:39:41;5.27;;;1.97;;
19127;SDS011;9696;53.686;10.094;2023-05-23T10:42:26;5.20;;;1.80;;
19127;SDS011;9696;53.686;10.094;2023-05-23T10:45:14;13.17;;;2.67;;
19127;SDS011;9696;53.686;10.094;2023-05-23T10:47:45;4.20;;;1.90;;
19127;SDS011;9696;53.686;10.094;2023-05-23T10:50:29;4.93;;;1.97;;
19127;SDS011;9696;53.686;10.094;2023-05-23T10:53:00;8.37;;;2.47;;
19127;SDS011;9696;53.686;10.094;2023-05-23T10:55:30;8.73;;;2.17;;
19127;SDS011;9696;53.686;10.094;2023-05-23T10:58:08;5.17;;;1.90;;
19127;SDS011;9696;53.686;10.094;2023-05-23T11:00:38;5.07;;;2.00;;
19127;SDS011;9696;53.686;10.094;2023-05-23T11:03:14;3.87;;;1.60;;
19127;SDS011;9696;53.686;10.094;2023-05-23T11:05:47;6.97;;;1.90;;
19127;SDS011;9696;53.686;10.094;2023-05-23T11:08:22;7.33;;;1.70;;
19127;SDS011;9696;53.686;10.094;2023-05-23T11:11:09;5.67;;;1.93;;
19127;SDS011;9696;53.686;10.094;2023-05-23T11:13:54;8.67;;;2.27;;
19127;SDS011;9696;53.686;10.094;2023-05-23T11:16:27;9.33;;;2.30;;
19127;SDS011;9696;53.686;10.094;2023-05-23T11:21:53;14.60;;;2.43;;
19127;SDS011;9696;53.686;10.094;2023-05-23T11:27:16;5.35;;;1.95;;
19127;SDS011;9696;53.686;10.094;2023-05-23T11:30:02;7.63;;;2.00;;
19127;SDS011;9696;53.686;10.094;2023-05-23T11:32:34;7.37;;;2.20;;
19127;SDS011;9696;53.686;10.094;2023-05-23T11:35:04;9.07;;;2.28;;
19127;SDS011;9696;53.686;10.094;2023-05-23T11:37:37;5.03;;;1.67;;
19127;SDS011;9696;53.686;10.094;2023-05-23T11:40:26;8.32;;;1.80;;
19127;SDS011;9696;53.686;10.094;2023-05-23T11:42:57;7.05;;;1.70;;
19127;SDS011;9696;53.686;10.094;2023-05-23T11:45:27;10.27;;;2.22;;
19127;SDS011;9696;53.686;10.094;2023-05-23T11:47:57;9.65;;;2.15;;
19127;SDS011;9696;53.686;10.094;2023-05-23T11:50:32;6.85;;;1.90;;
19127;SDS011;9696;53.686;10.094;2023-05-23T11:53:03;6.93;;;1.85;;
19127;SDS011;9696;53.686;10.094;2023-05-23T11:55:32;6.85;;;1.88;;
19127;SDS011;9696;53.686;10.094;2023-05-23T11:58:01;10.30;;;2.00;;
19127;SDS011;9696;53.686;10.094;2023-05-23T12:00:30;11.68;;;2.00;;
19127;SDS011;9696;53.686;10.094;2023-05-23T12:03:02;9.48;;;2.03;;
19127;SDS011;9696;53.686;10.094;2023-05-23T12:05:35;5.68;;;1.60;;
19127;SDS011;9696;53.686;10.094;2023-05-23T12:08:06;11.13;;;2.10;;
19127;SDS011;9696;53.686;10.094;2023-05-23T12:10:47;12.82;;;1.42;;
19127;SDS011;9696;53.686;10.094;2023-05-23T12:13:18;8.75;;;1.75;;
19127;SDS011;9696;53.686;10.094;2023-05-23T12:15:47;11.50;;;2.40;;
19127;SDS011;9696;53.686;10.094;2023-05-23T12:18:18;8.15;;;2.40;;
19127;SDS011;9696;53.686;10.094;2023-05-23T12:20:48;9.57;;;2.25;;
19127;SDS011;9696;53.686;10.094;2023-05-23T12:23:20;9.55;;;2.65;;
19127;SDS011;9696;53.686;10.094;2023-05-23T12:25:51;6.53;;;1.80;;
19127;SDS011;9696;53.686;10.094;2023-05-23T12:28:21;10.02;;;2.15;;
19127;SDS011;9696;53.686;10.094;2023-05-23T12:31:09;7.05;;;1.73;;
19127;SDS011;9696;53.686;10.094;2023-05-23T12:33:39;10.57;;;2.17;;
19127;SDS011;9696;53.686;10.094;2023-05-23T12:36:09;9.63;;;1.95;;
19127;SDS011;9696;53.686;10.094;2023-05-23T12:38:41;9.73;;;2.08;;
19127;SDS011;9696;53.686;10.094;2023-05-23T12:41:14;12.45;;;2.35;;
19127;SDS011;9696;53.686;10.094;2023-05-23T12:43:48;8.45;;;2.30;;
19127;SDS011;9696;53.686;10.094;2023-05-23T12:46:18;11.50;;;2.10;;
19127;SDS011;9696;53.686;10.094;2023-05-23T12:48:49;10.25;;;2.03;;
19127;SDS011;9696;53.686;10.094;2023-05-23T12:51:18;14.52;;;2.55;;
19127;SDS011;9696;53.686;10.094;2023-05-23T12:53:49;7.97;;;2.08;;
19127;SDS011;9696;53.686;10.094;2023-05-23T12:56:19;12.63;;;2.53;;
19127;SDS011;9696;53.686;10.094;2023-05-23T12:58:49;12.45;;;1.80;;
19127;SDS011;9696;53.686;10.094;2023-05-23T13:01:19;9.27;;;2.53;;
19127;SDS011;9696;53.686;10.094;2023-05-23T13:03:49;8.55;;;2.00;;
19127;SDS011;9696;53.686;10.094;2023-05-23T13:06:18;11.25;;;2.15;;
19127;SDS011;9696;53.686;10.094;2023-05-23T13:08:47;8.63;;;2.10;;
19127;SDS011;9696;53.686;10.094;2023-05-23T13:11:20;5.45;;;1.85;;
19127;SDS011;9696;53.686;10.094;2023-05-23T13:13:49;9.15;;;2.20;;
19127;SDS011;9696;53.686;10.094;2023-05-23T13:16:18;7.93;;;2.40;;
19127;SDS011;9696;53.686;10.094;2023-05-23T13:18:48;10.82;;;2.30;;
19127;SDS011;9696;53.686;10.094;2023-05-23T13:21:17;9.55;;;1.73;;
19127;SDS011;9696;53.686;10.094;2023-05-23T13:23:46;11.55;;;2.13;;
19127;SDS011;9696;53.686;10.094;2023-05-23T13:26:17;10.45;;;2.42;;
19127;SDS011;9696;53.686;10.094;2023-05-23T13:28:46;15.63;;;2.53;;
19127;SDS011;9696;53.686;10.094;2023-05-23T13:31:15;10.27;;;2.10;;
19127;SDS011;9696;53.686;10.094;2023-05-23T13:33:45;20.15;;;2.60;;
19127;SDS011;9696;53.686;10.094;2023-05-23T13:36:14;8.15;;;2.13;;
19127;SDS011;9696;53.686;10.094;2023-05-23T13:38:43;11.32;;;2.40;;
19127;SDS011;9696;53.686;10.094;2023-05-23T13:41:12;9.32;;;2.53;;
19127;SDS011;9696;53.686;10.094;2023-05-23T13:43:43;10.82;;;2.40;;
19127;SDS011;9696;53.686;10.094;2023-05-23T13:46:12;8.77;;;2.17;;
19127;SDS011;9696;53.686;10.094;2023-05-23T13:48:41;9.88;;;2.38;;
19127;SDS011;9696;53.686;10.094;2023-05-23T13:51:10;11.30;;;2.40;;
19127;SDS011;9696;53.686;10.094;2023-05-23T13:53:39;6.28;;;1.60;;
19127;SDS011;9696;53.686;10.094;2023-05-23T13:56:08;8.70;;;1.83;;
19127;SDS011;9696;53.686;10.094;2023-05-23T13:58:38;13.80;;;2.10;;
19127;SDS011;9696;53.686;10.094;2023-05-23T14:01:10;10.57;;;2.47;;
19127;SDS011;9696;53.686;10.094;2023-05-23T14:03:39;11.93;;;2.28;;
19127;SDS011;9696;53.686;10.094;2023-05-23T14:06:08;23.13;;;2.05;;
19127;SDS011;9696;53.686;10.094;2023-05-23T14:08:37;8.48;;;1.65;;
19127;SDS011;9696;53.686;10.094;2023-05-23T14:11:07;11.43;;;2.53;;
19127;SDS011;9696;53.686;10.094;2023-05-23T14:13:36;8.55;;;1.80;;
19127;SDS011;9696;53.686;10.094;2023-05-23T14:16:05;13.10;;;2.15;;
19127;SDS011;9696;53.686;10.094;2023-05-23T14:18:36;9.30;;;1.83;;
19127;SDS011;9696;53.686;10.094;2023-05-23T14:21:05;9.23;;;1.80;;
19127;SDS011;9696;53.686;10.094;2023-05-23T14:23:34;8.60;;;1.83;;
19127;SDS011;9696;53.686;10.094;2023-05-23T14:26:04;8.80;;;1.98;;
19127;SDS011;9696;53.686;10.094;2023-05-23T14:28:33;12.95;;;1.90;;
19127;SDS011;9696;53.686;10.094;2023-05-23T14:31:02;10.90;;;2.40;;
19127;SDS011;9696;53.686;10.094;2023-05-23T14:33:32;7.03;;;1.98;;
19127;SDS011;9696;53.686;10.094;2023-05-23T14:36:03;9.32;;;1.75;;
19127;SDS011;9696;53.686;10.094;2023-05-23T14:38:32;12.10;;;2.25;;
19127;SDS011;9696;53.686;10.094;2023-05-23T14:41:01;11.73;;;2.03;;
19127;SDS011;9696;53.686;10.094;2023-05-23T14:43:30;12.85;;;2.80;;
19127;SDS011;9696;53.686;10.094;2023-05-23T14:46:00;12.32;;;2.10;;
19127;SDS011;9696;53.686;10.094;2023-05-23T14:48:29;9.20;;;2.28;;
19127;SDS011;9696;53.686;10.094;2023-05-23T14:50:58;5.50;;;1.80;;
19127;SDS011;9696;53.686;10.094;2023-05-23T14:53:29;10.32;;;2.05;;
19127;SDS011;9696;53.686;10.094;2023-05-23T14:55:58;12.80;;;2.08;;
19127;SDS011;9696;53.686;10.094;2023-05-23T14:58:27;4.78;;;1.48;;
19127;SDS011;9696;53.686;10.094;2023-05-23T15:00:56;7.90;;;1.73;;
19127;SDS011;9696;53.686;10.094;2023-05-23T15:03:25;6.10;;;1.73;;
19127;SDS011;9696;53.686;10.094;2023-05-23T15:05:55;9.18;;;2.10;;